Time;durP1;ratioP1;P1;durP2;ratioP2;P2;SDS_P1;SDS_P2;PMS_P1;PMS_P2;Temp;Humidity;BMP_temperature;BMP_pressure;BME280_temperature;BME280_humidity;BME280_pressure;Samples;Min_cycle;Max_cycle;Signal;HPM_P1;HPM_P2
2023/06/11 00:00:42;;;;;;;0.30;0.30;;;19.40;99.90;;;;;;5000736;28;20044;-65
2023/06/11 00:03:07;;;;;;;0.20;0.20;;;19.50;99.90;;;;;;5008376;28;20049;-65
2023/06/11 00:05:33;;;;;;;1.15;0.60;;;19.40;99.90;;;;;;5010495;28;20048;-65
2023/06/11 00:08:00;;;;;;;0.35;0.35;;;19.40;99.90;;;;;;4998583;28;20556;-65
2023/06/11 00:10:26;;;;;;;0.20;0.20;;;19.50;99.90;;;;;;5009689;28;20041;-65
2023/06/11 00:12:51;;;;;;;0.00;0.00;;;19.50;99.90;;;;;;5005860;28;20050;-65
2023/06/11 00:15:17;;;;;;;1.05;1.02;;;19.50;99.90;;;;;;5004817;28;20128;-65
2023/06/11 00:17:42;;;;;;;1.77;1.38;;;19.40;99.90;;;;;;5013060;28;20034;-65
2023/06/11 00:20:11;;;;;;;0.00;0.00;;;19.50;99.90;;;;;;5012652;28;20081;-65
2023/06/11 00:22:38;;;;;;;0.00;0.00;;;19.40;99.90;;;;;;5008648;28;20128;-65
2023/06/11 00:25:06;;;;;;;0.55;0.55;;;19.40;99.90;;;;;;5012234;28;20046;-65
2023/06/11 00:27:34;;;;;;;0.22;0.22;;;19.40;99.90;;;;;;5008286;28;20042;-65
2023/06/11 00:30:04;;;;;;;0.08;0.08;;;19.50;99.90;;;;;;4999619;28;20140;-65
2023/06/11 00:32:33;;;;;;;0.55;0.47;;;19.50;99.90;;;;;;5012892;28;20045;-65
2023/06/11 00:34:59;;;;;;;0.10;0.05;;;19.40;99.90;;;;;;5007392;28;20073;-65
2023/06/11 00:37:25;;;;;;;0.43;0.43;;;19.40;99.90;;;;;;5001382;28;20425;-65
2023/06/11 00:39:51;;;;;;;0.10;0.10;;;19.40;99.90;;;;;;5012192;28;20073;-65
2023/06/11 00:42:19;;;;;;;0.10;0.10;;;19.40;99.90;;;;;;5007590;28;20527;-64
2023/06/11 00:44:46;;;;;;;0.52;0.52;;;19.40;99.90;;;;;;4994999;28;20401;-65
2023/06/11 00:47:16;;;;;;;0.00;0.00;;;19.40;99.90;;;;;;5010224;28;20108;-65
2023/06/11 00:49:43;;;;;;;0.43;0.32;;;19.40;99.90;;;;;;5009640;28;20049;-64
2023/06/11 00:52:13;;;;;;;0.50;0.50;;;19.30;99.90;;;;;;5001075;28;20050;-65
2023/06/11 00:54:39;;;;;;;0.10;0.10;;;19.30;99.90;;;;;;5011916;28;20084;-65
2023/06/11 00:57:06;;;;;;;0.47;0.47;;;19.30;99.90;;;;;;5012663;28;20133;-65
2023/06/11 00:59:34;;;;;;;0.85;0.85;;;19.30;99.90;;;;;;4998901;28;20434;-65
2023/06/11 01:02:30;;;;;;;3.05;1.88;;;19.30;99.90;;;;;;5000986;28;20049;-65
2023/06/11 01:04:58;;;;;;;0.22;0.17;;;19.20;99.90;;;;;;4999059;28;20041;-65
2023/06/11 01:07:30;;;;;;;2.40;2.20;;;19.30;99.90;;;;;;5012281;28;20092;-65
2023/06/11 01:09:56;;;;;;;0.20;0.20;;;19.30;99.90;;;;;;5011777;28;20053;-65
2023/06/11 01:12:22;;;;;;;0.63;0.63;;;19.30;99.90;;;;;;5000295;28;20042;-65
2023/06/11 01:14:48;;;;;;;0.00;0.00;;;19.30;99.90;;;;;;5010914;28;20052;-65
2023/06/11 01:17:18;;;;;;;0.00;0.00;;;19.20;99.90;;;;;;4998306;28;20459;-65
2023/06/11 01:20:11;;;;;;;0.17;0.17;;;19.20;99.90;;;;;;5009816;28;20038;-65
2023/06/11 01:23:04;;;;;;;0.38;0.38;;;19.20;99.90;;;;;;5010528;28;20061;-65
2023/06/11 01:26:03;;;;;;;0.88;0.88;;;19.20;99.90;;;;;;5002195;28;20046;-65
2023/06/11 01:28:31;;;;;;;0.32;0.32;;;19.20;99.90;;;;;;5004512;28;20058;-65
2023/06/11 01:31:01;;;;;;;0.32;0.30;;;19.10;99.90;;;;;;4998753;28;20117;-65
2023/06/11 01:33:27;;;;;;;8.15;1.10;;;19.10;99.90;;;;;;5012235;28;20092;-65
2023/06/11 01:35:57;;;;;;;0.35;0.35;;;19.10;99.90;;;;;;5011831;28;20150;-65
2023/06/11 01:38:25;;;;;;;0.20;0.20;;;19.10;99.90;;;;;;4996152;28;20049;-65
2023/06/11 01:40:52;;;;;;;0.82;0.80;;;19.20;99.90;;;;;;5000341;28;20053;-65
2023/06/11 01:43:17;;;;;;;0.35;0.35;;;19.10;99.90;;;;;;5012026;28;20054;-64
2023/06/11 01:45:43;;;;;;;0.52;0.50;;;19.10;99.90;;;;;;5003402;28;20121;-65
2023/06/11 01:48:09;;;;;;;0.10;0.10;;;19.10;99.90;;;;;;5004056;28;20060;-65
2023/06/11 01:50:35;;;;;;;0.30;0.30;;;19.10;99.90;;;;;;5013418;28;20390;-65
2023/06/11 01:53:00;;;;;;;1.30;0.55;;;19.10;99.90;;;;;;5005322;28;20054;-65
2023/06/11 01:55:26;;;;;;;0.50;0.50;;;19.10;99.90;;;;;;5009203;28;20046;-65
2023/06/11 01:57:51;;;;;;;0.22;0.22;;;19.10;99.90;;;;;;5005149;28;20041;-65
2023/06/11 02:00:18;;;;;;;0.68;0.45;;;19.00;99.90;;;;;;5015539;28;20085;-65
2023/06/11 02:02:46;;;;;;;0.00;0.00;;;19.00;99.90;;;;;;5030705;28;20049;-65
2023/06/11 02:05:12;;;;;;;0.20;0.20;;;19.00;99.90;;;;;;5010187;28;20077;-65
2023/06/11 02:07:37;;;;;;;0.22;0.10;;;19.00;99.90;;;;;;5014667;28;20076;-65
2023/06/11 02:10:03;;;;;;;0.20;0.20;;;19.00;99.90;;;;;;5013896;28;20046;-65
2023/06/11 02:12:29;;;;;;;0.47;0.47;;;19.00;99.90;;;;;;5006358;28;20042;-65
2023/06/11 02:14:55;;;;;;;0.98;0.60;;;18.90;99.90;;;;;;5015045;28;20042;-65
2023/06/11 02:17:20;;;;;;;3.20;0.80;;;18.90;99.90;;;;;;5015527;28;20448;-65
2023/06/11 02:19:46;;;;;;;1.83;1.08;;;18.90;99.90;;;;;;5006776;28;20049;-65
2023/06/11 02:22:12;;;;;;;0.43;0.43;;;18.90;99.90;;;;;;5014846;28;20038;-65
2023/06/11 02:24:37;;;;;;;0.10;0.10;;;18.90;99.90;;;;;;5015478;28;20041;-65
2023/06/11 02:27:03;;;;;;;0.15;0.15;;;18.90;99.90;;;;;;5009517;28;20041;-65
2023/06/11 02:29:29;;;;;;;0.13;0.13;;;18.90;99.90;;;;;;5003389;28;20049;-65
2023/06/11 02:31:54;;;;;;;3.03;0.50;;;18.80;99.90;;;;;;5014735;28;20038;-64
2023/06/11 02:34:20;;;;;;;0.20;0.20;;;18.80;99.90;;;;;;5003406;28;20042;-65
2023/06/11 02:36:45;;;;;;;1.83;0.65;;;18.80;99.90;;;;;;5013024;28;20038;-65
2023/06/11 02:39:11;;;;;;;0.20;0.20;;;18.80;99.90;;;;;;5014960;28;20121;-65
2023/06/11 02:41:36;;;;;;;0.25;0.25;;;18.80;99.90;;;;;;5002791;28;20045;-65
2023/06/11 02:44:02;;;;;;;0.20;0.20;;;18.80;99.90;;;;;;5011951;28;20052;-65
2023/06/11 02:46:28;;;;;;;0.35;0.35;;;18.70;99.90;;;;;;5014732;28;20046;-65
2023/06/11 02:48:53;;;;;;;1.40;1.05;;;18.80;99.90;;;;;;5005586;28;20036;-65
2023/06/11 02:51:19;;;;;;;0.10;0.10;;;18.80;99.90;;;;;;5002867;28;20393;-65
2023/06/11 02:53:45;;;;;;;0.50;0.50;;;18.80;99.90;;;;;;5004900;28;20038;-65
2023/06/11 02:56:10;;;;;;;2.10;1.05;;;18.80;99.90;;;;;;4999988;28;20039;-65
2023/06/11 02:58:36;;;;;;;0.28;0.28;;;18.80;99.90;;;;;;5006430;28;20174;-65
2023/06/11 03:01:01;;;;;;;1.45;0.73;;;18.80;99.90;;;;;;5013611;28;20050;-65
2023/06/11 03:03:27;;;;;;;0.45;0.45;;;18.70;99.90;;;;;;5011637;28;20551;-65
2023/06/11 03:05:52;;;;;;;0.57;0.25;;;18.80;99.90;;;;;;5011812;28;20065;-65
2023/06/11 03:08:18;;;;;;;0.73;0.73;;;18.80;99.90;;;;;;5014253;28;20149;-65
2023/06/11 03:10:43;;;;;;;0.30;0.30;;;18.70;99.90;;;;;;5011113;28;20135;-65
2023/06/11 03:13:09;;;;;;;0.10;0.10;;;18.70;99.90;;;;;;5007898;28;20041;-65
2023/06/11 03:15:35;;;;;;;0.10;0.10;;;18.70;99.90;;;;;;5014058;28;20482;-65
2023/06/11 03:18:01;;;;;;;0.00;0.00;;;18.70;99.90;;;;;;5014564;28;20057;-65
2023/06/11 03:20:27;;;;;;;0.90;0.63;;;18.70;99.90;;;;;;5009850;28;20042;-65
2023/06/11 03:22:53;;;;;;;1.30;1.05;;;18.70;99.90;;;;;;5027587;28;20042;-65
2023/06/11 03:25:18;;;;;;;0.65;0.65;;;18.70;99.90;;;;;;5014414;28;20041;-65
2023/06/11 03:27:44;;;;;;;0.30;0.20;;;18.70;99.90;;;;;;5005853;28;20030;-65
2023/06/11 03:30:11;;;;;;;1.65;1.27;;;18.70;99.90;;;;;;5011055;28;20514;-65
2023/06/11 03:32:38;;;;;;;0.08;0.08;;;18.70;99.90;;;;;;5009064;28;20053;-65
2023/06/11 03:35:04;;;;;;;0.47;0.47;;;18.60;99.90;;;;;;5013613;28;20042;-65
2023/06/11 03:37:29;;;;;;;0.50;0.40;;;18.60;99.90;;;;;;5013008;28;20058;-65
2023/06/11 03:39:55;;;;;;;0.30;0.25;;;18.60;99.90;;;;;;5009943;28;20082;-65
2023/06/11 03:42:20;;;;;;;0.00;0.00;;;18.60;99.90;;;;;;5008782;28;20038;-65
2023/06/11 03:44:48;;;;;;;0.17;0.17;;;18.60;99.90;;;;;;5013368;28;20046;-65
2023/06/11 03:47:13;;;;;;;0.03;0.03;;;18.50;99.90;;;;;;5008065;28;20426;-65
2023/06/11 03:49:39;;;;;;;0.30;0.30;;;18.60;99.90;;;;;;5000309;28;20045;-65
2023/06/11 03:52:05;;;;;;;0.47;0.47;;;18.50;99.90;;;;;;5001865;28;20482;-65
2023/06/11 03:54:30;;;;;;;0.77;0.77;;;18.60;99.90;;;;;;5009590;28;20332;-65
2023/06/11 03:56:56;;;;;;;1.02;0.20;;;18.60;99.90;;;;;;5013857;28;20701;-65
2023/06/11 03:59:21;;;;;;;0.00;0.00;;;18.50;99.90;;;;;;5011233;28;20417;-65
2023/06/11 04:01:47;;;;;;;0.00;0.00;;;18.60;99.90;;;;;;5002676;28;20116;-65
2023/06/11 04:04:13;;;;;;;0.35;0.35;;;18.60;99.90;;;;;;5008453;28;20050;-65
2023/06/11 04:06:39;;;;;;;1.73;0.70;;;18.60;99.90;;;;;;5009612;28;20045;-65
2023/06/11 04:09:08;;;;;;;0.38;0.38;;;18.60;99.90;;;;;;5007986;28;20046;-65
2023/06/11 04:11:34;;;;;;;0.25;0.25;;;18.60;99.90;;;;;;5012539;28;20045;-65
2023/06/11 04:14:00;;;;;;;1.88;0.40;;;18.60;99.90;;;;;;5008824;28;20116;-65
2023/06/11 04:16:26;;;;;;;0.52;0.40;;;18.60;99.90;;;;;;5012770;28;20045;-65
2023/06/11 04:18:52;;;;;;;2.58;0.73;;;18.60;99.90;;;;;;5003122;28;20113;-65
2023/06/11 04:21:17;;;;;;;0.40;0.30;;;18.60;99.90;;;;;;5011751;28;20064;-65
2023/06/11 04:23:43;;;;;;;0.68;0.57;;;18.70;99.90;;;;;;5000802;28;20045;-65
2023/06/11 04:26:09;;;;;;;0.20;0.20;;;18.70;99.90;;;;;;5004925;28;20034;-65
2023/06/11 04:28:36;;;;;;;0.20;0.20;;;18.70;99.90;;;;;;5006221;28;20053;-65
2023/06/11 04:31:02;;;;;;;1.45;0.55;;;18.70;99.90;;;;;;4995481;28;20054;-65
2023/06/11 04:33:36;;;;;;;4.53;0.43;;;18.70;99.90;;;;;;5000354;28;20045;-65
2023/06/11 04:36:09;;;;;;;0.30;0.30;;;18.70;99.90;;;;;;5001759;28;20057;-65
2023/06/11 04:38:38;;;;;;;0.70;0.45;;;18.70;99.90;;;;;;5005946;28;20476;-65
2023/06/11 04:41:11;;;;;;;3.72;0.65;;;18.70;99.90;;;;;;5001247;28;20065;-65
2023/06/11 04:43:36;;;;;;;0.10;0.10;;;18.70;99.90;;;;;;5017953;28;20402;-65
2023/06/11 04:46:04;;;;;;;0.03;0.03;;;18.80;99.90;;;;;;5003451;28;20085;-65
2023/06/11 04:48:34;;;;;;;0.47;0.47;;;18.80;99.90;;;;;;5006781;28;20041;-65
2023/06/11 04:51:00;;;;;;;0.52;0.40;;;18.80;99.90;;;;;;5006725;28;20123;-65
2023/06/11 04:53:29;;;;;;;0.15;0.15;;;18.80;99.90;;;;;;4995413;28;20062;-65
2023/06/11 04:55:57;;;;;;;0.10;0.10;;;18.80;99.90;;;;;;5008611;28;20059;-65
2023/06/11 04:58:26;;;;;;;3.03;1.38;;;18.90;99.90;;;;;;4998472;28;20125;-65
2023/06/11 05:00:56;;;;;;;2.22;1.50;;;18.90;99.90;;;;;;5012074;28;20089;-65
2023/06/11 05:03:24;;;;;;;0.30;0.30;;;18.90;99.90;;;;;;5009663;28;20392;-65
2023/06/11 05:05:51;;;;;;;0.52;0.38;;;19.00;99.90;;;;;;5008677;28;20073;-65
2023/06/11 05:08:18;;;;;;;0.68;0.47;;;19.00;99.90;;;;;;4999493;28;20053;-65
2023/06/11 05:10:44;;;;;;;0.45;0.45;;;19.00;99.90;;;;;;5010909;28;20052;-66
2023/06/11 05:13:11;;;;;;;0.40;0.40;;;19.00;99.90;;;;;;5012709;28;20045;-65
2023/06/11 05:15:36;;;;;;;0.25;0.25;;;19.10;99.90;;;;;;5008833;28;20049;-65
2023/06/11 05:18:02;;;;;;;0.25;0.25;;;19.20;99.90;;;;;;5008679;28;20220;-66
2023/06/11 05:20:28;;;;;;;0.85;0.85;;;19.20;99.90;;;;;;5012529;28;20092;-65
2023/06/11 05:22:58;;;;;;;1.48;0.93;;;19.20;99.90;;;;;;5004280;28;20496;-66
2023/06/11 05:25:28;;;;;;;0.10;0.10;;;19.20;99.90;;;;;;5005889;28;20041;-65
2023/06/11 05:27:55;;;;;;;1.65;0.57;;;19.30;99.90;;;;;;5029373;28;20408;-65
2023/06/11 05:30:24;;;;;;;0.75;0.75;;;19.30;99.90;;;;;;5005986;28;20532;-66
2023/06/11 05:32:51;;;;;;;0.00;0.00;;;19.40;99.90;;;;;;5004124;28;20382;-65
2023/06/11 05:35:16;;;;;;;0.75;0.47;;;19.40;99.90;;;;;;5011872;28;20038;-65
2023/06/11 05:37:42;;;;;;;0.50;0.50;;;19.40;99.90;;;;;;5006886;28;20048;-65
2023/06/11 05:40:09;;;;;;;0.55;0.45;;;19.50;99.90;;;;;;5035293;28;20054;-66
2023/06/11 05:42:35;;;;;;;0.10;0.10;;;19.50;99.90;;;;;;5011851;28;20580;-65
2023/06/11 05:45:00;;;;;;;0.65;0.65;;;19.60;99.90;;;;;;5011018;28;20129;-65
2023/06/11 05:47:26;;;;;;;0.40;0.40;;;19.60;99.90;;;;;;4999400;28;20085;-65
2023/06/11 05:49:51;;;;;;;0.30;0.30;;;19.60;99.90;;;;;;5005376;28;20050;-65
2023/06/11 05:52:17;;;;;;;0.50;0.50;;;19.60;99.90;;;;;;5011602;28;20066;-65
2023/06/11 05:54:42;;;;;;;1.02;0.40;;;19.70;99.90;;;;;;5011857;28;20550;-65
2023/06/11 05:57:20;;;;;;;0.20;0.20;;;19.70;99.90;;;;;;5000117;28;20077;-65
2023/06/11 05:59:46;;;;;;;1.45;1.05;;;19.80;99.90;;;;;;5004743;28;20044;-65
2023/06/11 06:02:11;;;;;;;0.47;0.47;;;19.80;99.90;;;;;;5011049;28;20125;-65
2023/06/11 06:04:37;;;;;;;0.57;0.57;;;19.90;99.90;;;;;;5005423;28;20472;-65
2023/06/11 06:07:03;;;;;;;1.27;0.90;;;19.90;99.90;;;;;;5009907;28;20048;-65
2023/06/11 06:09:29;;;;;;;0.20;0.20;;;20.00;99.90;;;;;;5011672;28;20401;-65
2023/06/11 06:11:54;;;;;;;0.93;0.15;;;20.00;99.90;;;;;;5009539;28;20052;-65
2023/06/11 06:14:20;;;;;;;0.22;0.20;;;20.00;99.90;;;;;;5000443;28;20109;-65
2023/06/11 06:16:45;;;;;;;0.20;0.10;;;20.10;99.90;;;;;;5003283;28;20050;-65
2023/06/11 06:19:11;;;;;;;0.28;0.28;;;20.20;99.90;;;;;;5010996;28;20049;-65
2023/06/11 06:21:37;;;;;;;0.50;0.50;;;20.20;99.90;;;;;;4999521;28;20046;-65
2023/06/11 06:24:03;;;;;;;1.75;1.30;;;20.30;99.90;;;;;;5008425;28;20049;-65
2023/06/11 06:26:28;;;;;;;0.10;0.10;;;20.30;99.90;;;;;;5010948;28;20125;-65
2023/06/11 06:28:54;;;;;;;0.20;0.20;;;20.30;99.90;;;;;;5007918;28;20074;-65
2023/06/11 06:31:22;;;;;;;0.95;0.93;;;20.40;99.90;;;;;;5009536;28;20061;-65
2023/06/11 06:33:49;;;;;;;1.55;1.00;;;20.50;99.90;;;;;;5010869;28;20393;-65
2023/06/11 06:36:15;;;;;;;0.98;0.30;;;20.60;99.90;;;;;;5006550;28;20493;-65
2023/06/11 06:38:40;;;;;;;0.00;0.00;;;20.70;99.90;;;;;;5006200;28;20109;-65
2023/06/11 06:41:06;;;;;;;0.15;0.15;;;20.70;99.90;;;;;;5009603;28;20069;-65
2023/06/11 06:43:33;;;;;;;0.20;0.20;;;20.80;99.90;;;;;;5002608;28;20042;-65
2023/06/11 06:45:59;;;;;;;0.73;0.65;;;20.90;99.90;;;;;;5006661;28;20046;-65
2023/06/11 06:48:25;;;;;;;4.10;3.72;;;20.90;99.90;;;;;;5009131;28;20057;-65
2023/06/11 06:50:51;;;;;;;0.38;0.38;;;21.00;99.90;;;;;;5006681;28;20498;-65
2023/06/11 06:53:16;;;;;;;1.20;1.10;;;21.00;99.90;;;;;;5013882;28;20077;-65
2023/06/11 06:55:44;;;;;;;0.40;0.40;;;21.10;99.90;;;;;;5014813;28;20134;-65
2023/06/11 06:58:10;;;;;;;0.45;0.45;;;21.10;99.90;;;;;;5010839;28;20085;-65
2023/06/11 07:00:35;;;;;;;0.63;0.55;;;21.20;99.90;;;;;;5012120;28;20049;-65
2023/06/11 07:03:01;;;;;;;0.17;0.15;;;21.30;99.90;;;;;;5014818;28;20038;-65
2023/06/11 07:05:27;;;;;;;4.10;0.63;;;21.40;99.90;;;;;;5000966;28;20050;-65
2023/06/11 07:07:53;;;;;;;0.22;0.22;;;21.50;99.90;;;;;;5007012;28;20042;-65
2023/06/11 07:10:19;;;;;;;0.08;0.08;;;21.60;99.90;;;;;;5014878;28;20045;-65
2023/06/11 07:12:45;;;;;;;0.28;0.28;;;21.60;99.90;;;;;;5014667;28;20455;-65
2023/06/11 07:15:10;;;;;;;0.73;0.52;;;21.60;99.90;;;;;;5004255;28;20564;-65
2023/06/11 07:17:37;;;;;;;0.28;0.28;;;21.70;99.90;;;;;;5012460;28;20041;-65
2023/06/11 07:20:04;;;;;;;0.22;0.22;;;21.80;99.90;;;;;;5009275;28;20030;-65
2023/06/11 07:22:30;;;;;;;0.35;0.35;;;21.80;99.90;;;;;;5006123;28;20042;-65
2023/06/11 07:24:56;;;;;;;0.85;0.65;;;21.90;99.90;;;;;;5014073;28;20048;-65
2023/06/11 07:27:22;;;;;;;0.47;0.45;;;22.00;99.90;;;;;;5003882;28;20128;-65
2023/06/11 07:29:47;;;;;;;0.10;0.10;;;22.00;99.90;;;;;;5008488;28;20772;-65
2023/06/11 07:32:13;;;;;;;0.75;0.52;;;22.20;99.90;;;;;;5011342;28;20046;-65
2023/06/11 07:34:40;;;;;;;0.30;0.30;;;22.20;99.90;;;;;;5014087;28;20496;-65
2023/06/11 07:37:05;;;;;;;0.15;0.15;;;22.20;99.90;;;;;;5012981;28;20088;-65
2023/06/11 07:39:31;;;;;;;0.00;0.00;;;22.20;99.90;;;;;;5000111;28;20074;-65
2023/06/11 07:41:57;;;;;;;0.60;0.30;;;22.30;99.90;;;;;;5010382;28;20041;-65
2023/06/11 07:44:22;;;;;;;1.40;1.40;;;22.40;99.90;;;;;;5007894;28;20046;-65
2023/06/11 07:46:48;;;;;;;0.20;0.20;;;22.40;99.90;;;;;;5005329;28;20486;-65
2023/06/11 07:49:13;;;;;;;0.10;0.10;;;22.60;99.90;;;;;;5013133;28;20115;-65
2023/06/11 07:51:41;;;;;;;0.77;0.52;;;22.60;99.90;;;;;;5011405;28;20050;-65
2023/06/11 07:54:07;;;;;;;0.30;0.30;;;22.70;99.90;;;;;;5002948;28;20101;-65
2023/06/11 07:56:33;;;;;;;0.57;0.57;;;22.80;99.90;;;;;;5006756;28;20045;-65
2023/06/11 07:58:59;;;;;;;0.45;0.30;;;22.80;99.90;;;;;;5005532;28;20045;-65
2023/06/11 08:01:24;;;;;;;0.28;0.28;;;22.90;99.90;;;;;;5006537;28;20121;-66
2023/06/11 08:03:50;;;;;;;0.57;0.30;;;23.00;99.90;;;;;;5013005;28;20050;-65
2023/06/11 08:06:16;;;;;;;0.10;0.10;;;23.00;99.90;;;;;;5012036;28;20050;-65
2023/06/11 08:08:41;;;;;;;1.17;0.20;;;23.10;99.90;;;;;;5008883;28;20141;-65
2023/06/11 08:11:07;;;;;;;0.52;0.52;;;23.20;99.90;;;;;;5009338;28;20089;-65
2023/06/11 08:13:34;;;;;;;0.10;0.10;;;23.20;99.90;;;;;;5013146;28;20061;-66
2023/06/11 08:16:00;;;;;;;1.20;0.73;;;23.30;99.90;;;;;;5008663;28;20103;-65
2023/06/11 08:18:26;;;;;;;0.00;0.00;;;23.40;99.90;;;;;;5006543;28;20042;-65
2023/06/11 08:20:53;;;;;;;0.70;0.70;;;23.40;99.90;;;;;;5012926;28;20459;-65
2023/06/11 08:23:19;;;;;;;0.77;0.68;;;23.50;99.90;;;;;;5011855;28;20069;-65
2023/06/11 08:25:45;;;;;;;0.40;0.22;;;23.50;99.90;;;;;;4996962;28;20042;-65
2023/06/11 08:28:11;;;;;;;0.20;0.20;;;23.60;99.90;;;;;;5005397;28;20400;-66
2023/06/11 08:30:36;;;;;;;0.50;0.40;;;23.80;99.90;;;;;;5012953;28;20042;-66
2023/06/11 08:33:02;;;;;;;0.20;0.20;;;23.80;99.90;;;;;;5004791;28;20046;-66
2023/06/11 08:35:28;;;;;;;0.57;0.57;;;23.80;99.90;;;;;;5031470;28;20042;-66
2023/06/11 08:37:53;;;;;;;0.28;0.22;;;23.90;99.90;;;;;;5007329;28;20044;-66
2023/06/11 08:40:21;;;;;;;1.08;0.35;;;23.90;99.90;;;;;;5004318;28;20041;-66
2023/06/11 08:42:47;;;;;;;0.10;0.10;;;24.00;99.90;;;;;;4999986;28;20041;-66
2023/06/11 08:45:13;;;;;;;0.52;0.52;;;24.10;99.90;;;;;;5002523;28;20050;-66
2023/06/11 08:47:42;;;;;;;1.25;0.90;;;24.10;99.90;;;;;;5005810;28;20061;-66
2023/06/11 08:50:10;;;;;;;0.40;0.40;;;24.10;99.90;;;;;;5012749;28;20520;-66
2023/06/11 08:52:37;;;;;;;0.30;0.30;;;24.20;99.90;;;;;;5022935;28;20046;-66
2023/06/11 08:55:03;;;;;;;0.20;0.20;;;24.20;99.90;;;;;;5011026;28;20141;-66
2023/06/11 08:57:30;;;;;;;0.47;0.47;;;24.30;99.90;;;;;;5012632;28;20116;-66
2023/06/11 08:59:56;;;;;;;0.13;0.13;;;24.40;99.90;;;;;;5008400;28;20109;-66
2023/06/11 09:02:22;;;;;;;0.10;0.10;;;24.50;99.90;;;;;;4997148;28;20038;-66
2023/06/11 09:04:48;;;;;;;1.25;1.15;;;24.60;99.90;;;;;;5012532;28;20046;-66
2023/06/11 09:07:23;;;;;;;0.38;0.38;;;24.70;99.90;;;;;;5007097;28;20073;-66
2023/06/11 09:10:22;;;;;;;0.50;0.50;;;24.70;99.90;;;;;;5012575;28;20042;-66
2023/06/11 09:12:47;;;;;;;0.65;0.65;;;24.70;99.90;;;;;;5000122;28;20494;-66
2023/06/11 09:15:13;;;;;;;0.90;0.47;;;24.90;99.90;;;;;;5004972;28;20034;-66
2023/06/11 09:17:41;;;;;;;1.10;0.77;;;25.00;99.90;;;;;;5005564;28;20038;-66
2023/06/11 09:20:14;;;;;;;1.48;0.65;;;25.00;99.90;;;;;;5012435;28;20124;-65
2023/06/11 09:22:41;;;;;;;0.20;0.20;;;25.10;99.90;;;;;;5011427;28;20038;-66
2023/06/11 09:25:19;;;;;;;0.50;0.50;;;25.10;99.90;;;;;;5009250;28;20042;-66
2023/06/11 09:27:45;;;;;;;0.40;0.40;;;25.20;99.90;;;;;;4993548;28;20038;-66
2023/06/11 09:30:20;;;;;;;0.57;0.55;;;25.30;99.90;;;;;;5011080;28;20058;-66
2023/06/11 09:32:48;;;;;;;2.20;1.25;;;25.30;99.90;;;;;;5012002;28;20053;-66
2023/06/11 09:35:14;;;;;;;0.73;0.52;;;25.30;99.90;;;;;;5010781;28;20604;-66
2023/06/11 09:37:40;;;;;;;0.10;0.10;;;25.50;99.90;;;;;;5003437;28;20037;-65
2023/06/11 09:40:11;;;;;;;0.05;0.05;;;25.60;99.90;;;;;;5010078;28;20357;-66
2023/06/11 09:42:37;;;;;;;0.63;0.50;;;25.60;99.90;;;;;;4995718;28;20043;-66
2023/06/11 09:45:02;;;;;;;5.78;1.00;;;26.00;99.90;;;;;;5009017;28;20489;-66
2023/06/11 09:47:30;;;;;;;0.90;0.82;;;26.40;99.90;;;;;;5006873;28;20039;-66
2023/06/11 09:49:58;;;;;;;0.10;0.10;;;26.70;99.90;;;;;;5009874;28;20054;-66
2023/06/11 09:52:25;;;;;;;0.00;0.00;;;27.00;99.90;;;;;;5007640;28;20402;-66
2023/06/11 09:54:52;;;;;;;2.30;0.82;;;27.30;99.90;;;;;;5010375;28;20049;-66
2023/06/11 09:57:18;;;;;;;0.55;0.52;;;27.60;99.90;;;;;;5011078;28;20065;-66
2023/06/11 09:59:45;;;;;;;0.45;0.43;;;27.80;99.90;;;;;;5002576;28;20042;-66
2023/06/11 10:02:11;;;;;;;2.10;0.95;;;27.90;99.90;;;;;;5004188;28;20442;-66
2023/06/11 10:04:37;;;;;;;1.25;0.50;;;27.90;99.90;;;;;;5000466;28;20057;-66
2023/06/11 10:07:04;;;;;;;0.10;0.10;;;28.00;99.90;;;;;;5011846;28;20489;-66
2023/06/11 10:09:32;;;;;;;0.10;0.10;;;28.20;99.90;;;;;;5006519;28;20045;-66
2023/06/11 10:11:58;;;;;;;0.65;0.65;;;28.30;99.90;;;;;;5009563;28;20524;-66
2023/06/11 10:14:24;;;;;;;0.20;0.20;;;28.40;99.90;;;;;;5004003;28;20569;-66
2023/06/11 10:16:50;;;;;;;0.35;0.35;;;28.50;99.90;;;;;;5013528;28;20129;-66
2023/06/11 10:19:16;;;;;;;1.02;0.85;;;28.50;99.90;;;;;;5010697;28;20057;-66
2023/06/11 10:21:44;;;;;;;0.55;0.28;;;28.60;99.90;;;;;;5014163;28;20058;-66
2023/06/11 10:24:24;;;;;;;0.28;0.20;;;28.60;99.90;;;;;;5014608;28;20073;-66
2023/06/11 10:27:07;;;;;;;0.10;0.10;;;28.70;99.90;;;;;;5001500;28;20049;-66
2023/06/11 10:29:42;;;;;;;0.20;0.20;;;28.90;99.90;;;;;;5007090;28;20093;-66
2023/06/11 10:32:15;;;;;;;0.25;0.25;;;28.90;99.90;;;;;;5005810;28;20096;-66
2023/06/11 10:34:41;;;;;;;0.30;0.30;;;28.90;99.90;;;;;;5009481;28;20034;-66
2023/06/11 10:37:07;;;;;;;0.20;0.20;;;28.90;99.90;;;;;;4998449;28;20047;-66
2023/06/11 10:39:32;;;;;;;0.10;0.10;;;28.90;99.90;;;;;;5014411;28;20035;-66
2023/06/11 10:42:02;;;;;;;0.45;0.25;;;28.90;99.90;;;;;;5014799;28;20049;-66
2023/06/11 10:44:29;;;;;;;1.38;0.75;;;29.10;99.90;;;;;;4999380;28;20050;-66
2023/06/11 10:46:59;;;;;;;0.40;0.40;;;29.10;99.90;;;;;;5009945;28;20049;-66
2023/06/11 10:49:28;;;;;;;0.40;0.30;;;29.10;99.90;;;;;;5014755;28;20050;-66
2023/06/11 10:51:54;;;;;;;0.25;0.25;;;28.90;99.90;;;;;;5005276;28;20072;-66
2023/06/11 10:54:27;;;;;;;0.35;0.20;;;29.10;99.90;;;;;;5012654;28;20429;-66
2023/06/11 10:56:54;;;;;;;;;;;29.30;99.90;;;;;;5014915;28;20037;-66
2023/06/11 10:59:23;;;;;;;0.25;0.25;;;29.40;99.90;;;;;;5005373;28;19948;-66
2023/06/11 11:01:54;;;;;;;0.52;0.45;;;29.50;99.90;;;;;;5010064;28;20549;-66
2023/06/11 11:04:21;;;;;;;0.32;0.32;;;29.70;99.90;;;;;;5014574;28;20405;-66
2023/06/11 11:06:48;;;;;;;0.40;0.30;;;29.80;99.90;;;;;;5002733;28;20136;-66
2023/06/11 11:09:21;;;;;;;0.20;0.08;;;29.90;99.90;;;;;;5006979;28;20060;-66
2023/06/11 11:11:48;;;;;;;3.63;0.22;;;29.90;99.90;;;;;;5013997;28;20520;-66
2023/06/11 11:14:16;;;;;;;0.30;0.30;;;30.00;99.90;;;;;;5013850;28;20044;-66
2023/06/11 11:16:42;;;;;;;2.45;0.75;;;30.30;99.90;;;;;;5003519;28;20081;-66
2023/06/11 11:19:08;;;;;;;0.38;0.38;;;30.30;99.70;;;;;;5008558;28;20476;-66
2023/06/11 11:21:33;;;;;;;0.30;0.30;;;30.50;99.90;;;;;;5001738;28;20089;-66
2023/06/11 11:23:59;;;;;;;0.20;0.20;;;30.40;99.90;;;;;;5007284;28;20461;-66
2023/06/11 11:26:26;;;;;;;0.52;0.52;;;30.10;99.50;;;;;;5014143;28;20050;-66
2023/06/11 11:28:52;;;;;;;0.20;0.20;;;30.20;99.70;;;;;;4999837;28;20487;-66
2023/06/11 11:31:20;;;;;;;1.75;1.02;;;30.50;99.70;;;;;;5007314;28;20116;-66
2023/06/11 11:33:48;;;;;;;0.10;0.10;;;30.70;99.50;;;;;;5013883;28;20042;-66
2023/06/11 11:36:14;;;;;;;0.60;0.28;;;30.60;99.60;;;;;;5007886;28;20069;-66
2023/06/11 11:38:40;;;;;;;0.35;0.20;;;30.70;99.50;;;;;;5000865;28;20081;-66
2023/06/11 11:41:11;;;;;;;0.22;0.22;;;30.70;99.40;;;;;;5010910;28;20493;-66
2023/06/11 11:43:40;;;;;;;0.10;0.10;;;31.00;98.90;;;;;;5007846;28;20093;-66
2023/06/11 11:46:20;;;;;;;0.30;0.30;;;31.10;98.10;;;;;;5007635;28;20042;-66
2023/06/11 11:48:46;;;;;;;0.47;0.47;;;31.30;97.60;;;;;;5003597;28;20132;-66
2023/06/11 11:51:15;;;;;;;1.23;0.57;;;31.30;97.50;;;;;;5011198;28;20100;-66
2023/06/11 11:53:41;;;;;;;0.10;0.10;;;31.50;98.70;;;;;;5003088;28;20042;-67
2023/06/11 11:56:06;;;;;;;0.30;0.10;;;31.50;97.30;;;;;;5010336;28;20057;-66
2023/06/11 11:58:37;;;;;;;0.35;0.30;;;31.50;97.50;;;;;;5011000;28;20049;-67
2023/06/11 12:01:03;;;;;;;0.10;0.10;;;31.90;97.20;;;;;;4999135;28;20056;-66
2023/06/11 12:03:29;;;;;;;10.88;0.95;;;31.90;97.90;;;;;;5011061;28;20124;-66
2023/06/11 12:06:02;;;;;;;0.10;0.10;;;32.10;97.30;;;;;;5013766;28;20065;-66
2023/06/11 12:08:28;;;;;;;;;;;32.10;97.30;;;;;;5002460;28;20380;-66
2023/06/11 12:10:55;;;;;;;1.80;0.15;;;32.20;96.50;;;;;;5012507;28;19925;-67
2023/06/11 12:13:20;;;;;;;0.20;0.20;;;32.10;96.00;;;;;;5009054;28;20060;-67
2023/06/11 12:15:47;;;;;;;0.08;0.05;;;32.40;96.10;;;;;;5000552;28;20482;-66
2023/06/11 12:18:13;;;;;;;0.25;0.17;;;31.70;96.20;;;;;;5012677;28;20037;-66
2023/06/11 12:20:39;;;;;;;0.05;0.05;;;31.80;96.00;;;;;;5011735;28;20355;-66
2023/06/11 12:23:04;;;;;;;0.95;0.90;;;31.50;96.80;;;;;;5008525;28;20125;-66
2023/06/11 12:25:30;;;;;;;0.00;0.00;;;31.80;96.60;;;;;;5008205;28;20046;-67
2023/06/11 12:27:56;;;;;;;0.28;0.28;;;31.70;96.10;;;;;;5009478;28;20794;-67
2023/06/11 12:30:22;;;;;;;0.20;0.20;;;31.70;95.80;;;;;;5002960;28;20052;-66
2023/06/11 12:32:48;;;;;;;0.47;0.38;;;31.90;96.10;;;;;;5004587;28;20500;-66
2023/06/11 12:35:14;;;;;;;0.20;0.17;;;31.70;95.30;;;;;;5011741;28;20432;-66
2023/06/11 12:37:40;;;;;;;0.10;0.10;;;32.10;96.20;;;;;;5013142;28;20033;-66
2023/06/11 12:40:06;;;;;;;0.17;0.17;;;32.40;95.50;;;;;;5011932;28;20087;-66
2023/06/11 12:42:35;;;;;;;0.75;0.47;;;32.60;95.50;;;;;;5003266;28;20521;-66
2023/06/11 12:45:02;;;;;;;1.65;0.50;;;32.40;94.30;;;;;;5001217;28;20038;-66
2023/06/11 12:47:28;;;;;;;0.00;0.00;;;32.40;94.60;;;;;;5010590;28;20037;-66